Time;durP1;ratioP1;P1;durP2;ratioP2;P2;SDS_P1;SDS_P2;PMS_P1;PMS_P2;Temp;Humidity;BMP_temperature;BMP_pressure;BME280_temperature;BME280_humidity;BME280_pressure;Samples;Min_cycle;Max_cycle;Signal;HPM_P1;HPM_P2
2023/11/12 00:01:31;;;;;;;;;;;;;;;1.80;62.55;94555.50;4967434;28;19968;-68
2023/11/12 00:03:57;;;;;;;;;;;;;;;2.09;60.93;94562.34;4981448;28;19957;-68
2023/11/12 00:06:22;;;;;;;;;;;;;;;1.84;60.29;94556.84;4971277;28;19952;-68
2023/11/12 00:08:47;;;;;;;;;;;;;;;2.05;60.02;94558.34;4980650;28;19934;-67
2023/11/12 00:11:14;;;;;;;;;;;;;;;1.97;62.02;94551.22;4964128;28;20348;-68
2023/11/12 00:13:39;;;;;;;;;;;;;;;1.42;60.57;94552.09;4975360;28;19936;-68
2023/11/12 00:16:04;;;;;;;;;;;;;;;1.56;61.54;94556.88;4974226;28;20411;-68
2023/11/12 00:18:30;;;;;;;;;;;;;;;2.00;60.28;94558.81;4976704;28;19965;-68
2023/11/12 00:20:55;;;;;;;;;;;;;;;1.57;61.73;94548.03;4978656;28;20014;-67
2023/11/12 00:23:23;;;;;;;;;;;;;;;1.69;60.71;94553.06;4982029;28;19997;-68
2023/11/12 00:25:49;;;;;;;;;;;;;;;1.75;61.08;94547.25;4964076;28;20167;-68
2023/11/12 00:28:14;;;;;;;;;;;;;;;2.09;59.64;94549.19;4965292;28;19957;-68
2023/11/12 00:30:40;;;;;;;;;;;;;;;1.07;63.25;94534.38;4969752;28;20072;-68
2023/11/12 00:33:05;;;;;;;;;;;;;;;1.79;60.08;94545.13;4970453;28;19945;-68
2023/11/12 00:35:30;;;;;;;;;;;;;;;1.44;61.93;94539.69;4969388;28;19968;-68
2023/11/12 00:37:55;;;;;;;;;;;;;;;1.29;61.43;94544.59;4966442;28;19970;-67
2023/11/12 00:40:21;;;;;;;;;;;;;;;2.03;60.34;94536.66;4968515;28;19940;-68
2023/11/12 00:42:46;;;;;;;;;;;;;;;2.17;60.40;94530.03;4972737;28;19958;-67
2023/11/12 00:45:12;;;;;;;;;;;;;;;2.16;60.16;94527.56;4975483;28;19959;-68
2023/11/12 00:47:37;;;;;;;;;;;;;;;2.34;58.35;94520.50;4971430;28;19958;-68
2023/11/12 00:50:03;;;;;;;;;;;;;;;2.28;59.20;94521.09;4972742;28;20494;-68
2023/11/12 00:52:28;;;;;;;;;;;;;;;2.21;59.01;94525.34;4981911;28;20615;-68
2023/11/12 00:54:53;;;;;;;;;;;;;;;2.00;59.14;94523.84;4973522;28;20053;-68
2023/11/12 00:57:19;;;;;;;;;;;;;;;1.94;58.88;94534.97;4973952;28;20021;-67
2023/11/12 00:59:44;;;;;;;;;;;;;;;2.28;59.91;94518.47;4973304;28;20008;-68
2023/11/12 01:02:15;;;;;;;;;;;;;;;1.50;59.53;94526.78;4974029;28;19929;-68
2023/11/12 01:04:40;;;;;;;;;;;;;;;2.10;59.42;94527.22;4974914;28;20061;-68
2023/11/12 01:07:05;;;;;;;;;;;;;;;2.36;59.17;94523.81;4974385;28;20064;-68
2023/11/12 01:09:31;;;;;;;;;;;;;;;2.31;59.75;94520.00;4979899;28;20622;-67
2023/11/12 01:11:56;;;;;;;;;;;;;;;2.00;59.77;94522.03;4964883;28;20295;-67
2023/11/12 01:14:21;;;;;;;;;;;;;;;1.84;60.34;94514.84;4979070;28;20367;-68
2023/11/12 01:16:47;;;;;;;;;;;;;;;1.61;61.73;94525.78;4966361;28;20002;-68
2023/11/12 01:19:12;;;;;;;;;;;;;;;0.39;64.04;94517.91;4968374;28;20429;-68
2023/11/12 01:21:38;;;;;;;;;;;;;;;-0.47;66.53;94519.47;4976436;28;20449;-68
2023/11/12 01:24:03;;;;;;;;;;;;;;;1.42;63.34;94512.75;4976185;28;19922;-68
2023/11/12 01:26:29;;;;;;;;;;;;;;;2.22;61.43;94500.72;4974215;28;20032;-68
2023/11/12 01:28:54;;;;;;;;;;;;;;;2.26;60.72;94496.78;4972903;28;19953;-68
2023/11/12 01:31:20;;;;;;;;;;;;;;;2.42;60.15;94498.72;4974858;28;19933;-68
2023/11/12 01:33:45;;;;;;;;;;;;;;;2.36;59.35;94501.94;4970854;28;20012;-68
2023/11/12 01:36:11;;;;;;;;;;;;;;;2.64;58.66;94500.00;4974434;28;19960;-68
2023/11/12 01:38:36;;;;;;;;;;;;;;;2.63;59.43;94503.59;4969168;28;20484;-68
2023/11/12 01:41:03;;;;;;;;;;;;;;;2.53;57.36;94498.44;4973834;28;19951;-69
2023/11/12 01:43:31;;;;;;;;;;;;;;;1.40;60.84;94507.66;4974550;28;20578;-68
2023/11/12 01:45:56;;;;;;;;;;;;;;;1.44;61.80;94505.59;4970679;28;20015;-68
2023/11/12 01:48:22;;;;;;;;;;;;;;;2.11;60.39;94497.34;4969865;28;19921;-68
2023/11/12 01:50:47;;;;;;;;;;;;;;;0.37;62.45;94496.25;4979947;28;19929;-68
2023/11/12 01:53:13;;;;;;;;;;;;;;;1.86;61.71;94486.66;4977357;28;20535;-68
2023/11/12 01:55:38;;;;;;;;;;;;;;;2.38;59.96;94495.56;4969475;28;20397;-68
2023/11/12 01:58:04;;;;;;;;;;;;;;;2.80;57.82;94501.06;4973159;28;19914;-68
2023/11/12 02:00:29;;;;;;;;;;;;;;;1.09;60.47;94508.00;4974249;28;19967;-68
2023/11/12 02:02:55;;;;;;;;;;;;;;;2.43;58.55;94502.16;4966036;28;19922;-68
2023/11/12 02:05:20;;;;;;;;;;;;;;;2.63;57.14;94493.06;4980778;28;19930;-68
2023/11/12 02:07:47;;;;;;;;;;;;;;;2.52;58.92;94490.72;4976380;28;19929;-68
2023/11/12 02:10:15;;;;;;;;;;;;;;;2.58;58.35;94495.34;4968786;28;19957;-68
2023/11/12 02:12:46;;;;;;;;;;;;;;;1.01;62.76;94500.00;4970248;28;20435;-68
2023/11/12 02:15:15;;;;;;;;;;;;;;;2.22;60.46;94491.00;4976270;28;19926;-68
2023/11/12 02:17:41;;;;;;;;;;;;;;;2.59;58.41;94490.94;4969149;28;20004;-68
2023/11/12 02:20:07;;;;;;;;;;;;;;;2.78;57.94;94497.75;4970553;28;19937;-68
2023/11/12 02:22:34;;;;;;;;;;;;;;;2.82;57.63;94491.19;4977557;28;19931;-68
2023/11/12 02:25:00;;;;;;;;;;;;;;;2.86;57.52;94492.53;4968028;28;19918;-68
2023/11/12 02:27:25;;;;;;;;;;;;;;;2.48;57.18;94498.09;4973859;28;19922;-68
2023/11/12 02:29:50;;;;;;;;;;;;;;;2.57;58.85;94493.72;4976058;28;19958;-68
2023/11/12 02:32:16;;;;;;;;;;;;;;;2.12;60.87;94487.66;4973382;28;19924;-68
2023/11/12 02:34:42;;;;;;;;;;;;;;;2.43;58.88;94487.22;4967959;28;20379;-68
2023/11/12 02:37:07;;;;;;;;;;;;;;;2.68;57.52;94494.44;4974124;28;19988;-68
2023/11/12 02:39:33;;;;;;;;;;;;;;;2.80;57.72;94495.81;4967812;28;20375;-68
2023/11/12 02:41:58;;;;;;;;;;;;;;;2.34;57.97;94493.38;4973269;28;20402;-67
2023/11/12 02:44:24;;;;;;;;;;;;;;;2.74;58.88;94499.03;4979295;28;19941;-68
2023/11/12 02:46:49;;;;;;;;;;;;;;;0.96;62.63;94505.72;4977639;28;19926;-68
2023/11/12 02:49:22;;;;;;;;;;;;;;;1.56;61.96;94496.53;4974324;28;19992;-68
2023/11/12 02:51:49;;;;;;;;;;;;;;;2.02;63.68;94490.38;4967971;28;19926;-68
2023/11/12 02:54:14;;;;;;;;;;;;;;;-0.11;65.12;94504.06;4976785;28;19918;-68
2023/11/12 02:56:39;;;;;;;;;;;;;;;0.77;64.49;94496.97;4975882;28;20523;-68
2023/11/12 02:59:05;;;;;;;;;;;;;;;1.79;60.71;94493.47;4970882;28;20033;-68
2023/11/12 03:01:30;;;;;;;;;;;;;;;1.50;60.56;94507.63;4964285;28;19967;-68
2023/11/12 03:03:55;;;;;;;;;;;;;;;0.38;65.72;94508.38;4964136;28;19926;-67
2023/11/12 03:06:22;;;;;;;;;;;;;;;1.39;61.81;94499.97;4974732;28;20035;-66
2023/11/12 03:08:48;;;;;;;;;;;;;;;1.57;60.63;94495.56;4967350;28;19936;-68
2023/11/12 03:11:13;;;;;;;;;;;;;;;1.72;60.15;94501.13;4964889;28;20145;-68
2023/11/12 03:13:38;;;;;;;;;;;;;;;1.65;59.57;94500.09;4966095;28;19988;-68
2023/11/12 03:16:04;;;;;;;;;;;;;;;1.04;63.73;94495.31;4971418;28;19964;-67
2023/11/12 03:18:29;;;;;;;;;;;;;;;1.96;59.38;94493.59;4963695;28;19966;-67
2023/11/12 03:20:54;;;;;;;;;;;;;;;2.20;58.41;94489.53;4972139;28;19941;-68
2023/11/12 03:23:19;;;;;;;;;;;;;;;2.19;58.50;94490.50;4973611;28;19960;-68
2023/11/12 03:25:45;;;;;;;;;;;;;;;1.39;59.64;94489.47;4972271;28;20102;-68
2023/11/12 03:28:10;;;;;;;;;;;;;;;1.26;61.34;94495.88;4978036;28;19960;-67
2023/11/12 03:30:37;;;;;;;;;;;;;;;1.97;59.99;94480.34;4975139;28;19971;-68
2023/11/12 03:33:03;;;;;;;;;;;;;;;2.35;58.10;94474.84;4967824;28;20127;-68
2023/11/12 03:35:28;;;;;;;;;;;;;;;1.67;58.59;94474.50;4971489;28;20043;-67
2023/11/12 03:37:54;;;;;;;;;;;;;;;1.32;59.77;94489.22;4975140;28;19930;-67
2023/11/12 03:40:19;;;;;;;;;;;;;;;2.13;58.74;94477.03;4963842;28;19933;-67
2023/11/12 03:42:44;;;;;;;;;;;;;;;2.32;58.46;94469.94;4966285;28;19954;-67
2023/11/12 03:45:10;;;;;;;;;;;;;;;2.38;59.33;94476.34;4964651;28;19946;-67
2023/11/12 03:47:35;;;;;;;;;;;;;;;2.55;56.89;94477.25;4973520;28;19972;-68
2023/11/12 03:50:01;;;;;;;;;;;;;;;1.27;63.58;94478.34;4976073;28;21005;-67
2023/11/12 03:52:26;;;;;;;;;;;;;;;2.20;60.95;94474.59;4983319;28;20136;-67
2023/11/12 03:54:52;;;;;;;;;;;;;;;2.45;60.41;94473.94;4975570;28;19934;-67
2023/11/12 03:57:18;;;;;;;;;;;;;;;2.81;59.18;94462.44;4969277;28;19961;-67
2023/11/12 03:59:44;;;;;;;;;;;;;;;3.20;59.62;94469.81;4964901;28;19922;-66
2023/11/12 04:02:09;;;;;;;;;;;;;;;2.93;56.69;94473.50;4980754;28;19921;-67
2023/11/12 04:04:34;;;;;;;;;;;;;;;2.87;56.52;94475.78;4975574;28;19914;-67
2023/11/12 04:07:00;;;;;;;;;;;;;;;2.43;61.17;94473.25;4970774;28;20059;-67
2023/11/12 04:09:25;;;;;;;;;;;;;;;3.04;58.56;94467.97;4975479;28;20540;-68
2023/11/12 04:11:50;;;;;;;;;;;;;;;3.13;55.20;94466.19;4975642;28;19933;-67
2023/11/12 04:14:16;;;;;;;;;;;;;;;1.78;58.02;94462.13;4970478;28;19922;-67
2023/11/12 04:16:41;;;;;;;;;;;;;;;2.61;57.61;94468.75;4970684;28;20047;-67
2023/11/12 04:19:07;;;;;;;;;;;;;;;2.14;56.26;94473.41;4968214;28;20484;-67
2023/11/12 04:21:35;;;;;;;;;;;;;;;2.59;55.77;94462.81;4974975;28;19972;-67
2023/11/12 04:24:00;;;;;;;;;;;;;;;2.59;55.59;94464.66;4972690;28;19996;-67
2023/11/12 04:26:27;;;;;;;;;;;;;;;1.92;60.28;94463.38;4979612;28;19937;-67
2023/11/12 04:28:54;;;;;;;;;;;;;;;2.21;60.39;94465.72;4979738;28;19934;-68
2023/11/12 04:31:19;;;;;;;;;;;;;;;1.92;56.81;94464.22;4974641;28;20425;-67
2023/11/12 04:33:46;;;;;;;;;;;;;;;2.04;59.81;94461.34;4974181;28;19921;-68
2023/11/12 04:36:12;;;;;;;;;;;;;;;2.46;61.85;94465.91;4974944;28;19930;-67
2023/11/12 04:38:38;;;;;;;;;;;;;;;2.72;61.49;94464.22;4974047;28;19928;-67
2023/11/12 04:41:03;;;;;;;;;;;;;;;2.74;63.99;94467.50;4975017;28;20405;-67
2023/11/12 04:43:28;;;;;;;;;;;;;;;1.97;56.29;94463.75;4979945;28;19922;-67
2023/11/12 04:45:54;;;;;;;;;;;;;;;2.42;58.67;94461.94;4973825;28;19929;-68
2023/11/12 04:48:19;;;;;;;;;;;;;;;2.74;60.86;94457.81;4978720;28;19914;-68
2023/11/12 04:50:46;;;;;;;;;;;;;;;2.91;62.69;94463.97;4975020;28;19973;-68
2023/11/12 04:53:11;;;;;;;;;;;;;;;2.97;61.75;94456.44;4981269;28;19933;-68
2023/11/12 04:55:38;;;;;;;;;;;;;;;2.94;63.19;94451.47;4974295;28;19922;-68
2023/11/12 04:58:04;;;;;;;;;;;;;;;2.87;62.45;94454.75;4963332;28;19925;-68
2023/11/12 05:00:30;;;;;;;;;;;;;;;2.92;62.78;94451.63;4966769;28;19930;-68
2023/11/12 05:02:55;;;;;;;;;;;;;;;2.91;62.50;94445.56;4972817;28;19979;-68
2023/11/12 05:05:20;;;;;;;;;;;;;;;2.88;62.20;94443.25;4965648;28;19922;-68
2023/11/12 05:07:45;;;;;;;;;;;;;;;2.88;62.55;94443.25;4971369;28;20008;-68
2023/11/12 05:10:11;;;;;;;;;;;;;;;2.85;61.13;94445.34;4969312;28;19925;-68
2023/11/12 05:12:37;;;;;;;;;;;;;;;2.78;62.80;94442.56;4969477;28;19979;-68
2023/11/12 05:15:02;;;;;;;;;;;;;;;2.71;61.99;94445.00;4967729;28;19926;-68
2023/11/12 05:17:28;;;;;;;;;;;;;;;2.63;62.70;94450.22;4970491;28;19984;-68
2023/11/12 05:19:54;;;;;;;;;;;;;;;2.57;63.27;94453.47;4967583;28;19988;-68
2023/11/12 05:22:19;;;;;;;;;;;;;;;2.52;61.16;94453.94;4980071;28;19925;-68
2023/11/12 05:24:44;;;;;;;;;;;;;;;2.46;62.13;94458.03;4969156;28;19953;-68
2023/11/12 05:27:09;;;;;;;;;;;;;;;2.42;64.57;94461.09;4976637;28;19930;-68
2023/11/12 05:29:35;;;;;;;;;;;;;;;2.37;62.57;94456.31;4979711;28;19952;-68
2023/11/12 05:32:00;;;;;;;;;;;;;;;2.38;63.07;94458.78;4972702;28;19926;-68
2023/11/12 05:34:25;;;;;;;;;;;;;;;2.38;63.26;94450.06;4971623;28;20147;-68
2023/11/12 05:36:51;;;;;;;;;;;;;;;2.33;62.70;94453.19;4969630;28;19933;-68
2023/11/12 05:39:16;;;;;;;;;;;;;;;2.33;63.59;94450.56;4970449;28;19932;-68
2023/11/12 05:41:41;;;;;;;;;;;;;;;2.49;64.76;94455.06;4968462;28;20431;-68
2023/11/12 05:44:06;;;;;;;;;;;;;;;2.55;64.77;94453.59;4969518;28;20024;-68
2023/11/12 05:46:32;;;;;;;;;;;;;;;2.56;64.76;94455.28;4968799;28;19930;-68
2023/11/12 05:48:57;;;;;;;;;;;;;;;2.63;64.48;94458.91;4975252;28;19928;-68
2023/11/12 05:51:22;;;;;;;;;;;;;;;2.70;64.23;94459.13;4966416;28;19955;-68
2023/11/12 05:53:47;;;;;;;;;;;;;;;2.76;63.27;94463.72;4974747;28;19933;-68
2023/11/12 05:56:13;;;;;;;;;;;;;;;2.83;63.67;94463.13;4967712;28;19968;-68
2023/11/12 05:58:38;;;;;;;;;;;;;;;2.91;64.56;94474.50;4962045;28;20395;-67
2023/11/12 06:01:03;;;;;;;;;;;;;;;2.89;62.17;94465.09;4968175;28;20322;-68
2023/11/12 06:03:29;;;;;;;;;;;;;;;2.77;61.42;94470.66;4972356;28;19956;-67
2023/11/12 06:05:55;;;;;;;;;;;;;;;2.93;62.69;94476.13;4971994;28;20535;-67
2023/11/12 06:08:20;;;;;;;;;;;;;;;2.86;55.26;94481.22;4971800;28;19921;-68
2023/11/12 06:10:45;;;;;;;;;;;;;;;2.78;56.95;94482.81;4970952;28;20594;-67
2023/11/12 06:13:11;;;;;;;;;;;;;;;2.45;56.62;94482.63;4970125;28;19926;-67
2023/11/12 06:15:36;;;;;;;;;;;;;;;2.07;60.02;94482.03;4971848;28;19999;-67
2023/11/12 06:18:01;;;;;;;;;;;;;;;2.06;62.25;94470.72;4969271;28;19936;-68
2023/11/12 06:20:27;;;;;;;;;;;;;;;2.49;60.29;94478.69;4966928;28;19960;-67
2023/11/12 06:22:53;;;;;;;;;;;;;;;2.71;62.56;94486.22;4971443;28;20563;-67
2023/11/12 06:25:18;;;;;;;;;;;;;;;2.93;62.75;94470.88;4966439;28;19918;-68
2023/11/12 06:27:43;;;;;;;;;;;;;;;2.32;55.89;94479.59;4977607;28;20538;-67
2023/11/12 06:30:09;;;;;;;;;;;;;;;2.84;61.79;94477.91;4973160;28;19922;-68
2023/11/12 06:32:34;;;;;;;;;;;;;;;2.91;60.72;94484.19;4972857;28;19922;-68
2023/11/12 06:34:59;;;;;;;;;;;;;;;2.97;59.18;94491.44;4972245;28;19932;-67
2023/11/12 06:37:24;;;;;;;;;;;;;;;3.13;62.36;94488.03;4973539;28;20054;-67
2023/11/12 06:39:50;;;;;;;;;;;;;;;3.32;63.54;94486.13;4973924;28;19984;-66
2023/11/12 06:42:15;;;;;;;;;;;;;;;2.09;62.06;94486.19;4967599;28;19922;-67
2023/11/12 06:44:40;;;;;;;;;;;;;;;2.55;56.32;94495.66;4968088;28;19922;-68
2023/11/12 06:47:06;;;;;;;;;;;;;;;2.70;61.37;94495.09;4975161;28;20352;-67
2023/11/12 06:49:32;;;;;;;;;;;;;;;2.86;60.32;94499.63;4974518;28;19922;-67
2023/11/12 06:51:57;;;;;;;;;;;;;;;3.08;61.34;94497.38;4974920;28;20048;-68
2023/11/12 06:54:23;;;;;;;;;;;;;;;3.08;63.95;94500.00;4968973;28;20083;-67
2023/11/12 06:56:48;;;;;;;;;;;;;;;3.13;59.14;94498.56;4967611;28;19965;-68
2023/11/12 06:59:13;;;;;;;;;;;;;;;3.37;62.97;94507.50;4964476;28;20024;-67
2023/11/12 07:01:38;;;;;;;;;;;;;;;3.50;59.98;94508.91;4967671;28;20145;-67
2023/11/12 07:04:04;;;;;;;;;;;;;;;3.25;60.59;94509.63;4969833;28;19988;-68
2023/11/12 07:06:29;;;;;;;;;;;;;;;3.41;62.95;94518.56;4970644;28;19988;-68
2023/11/12 07:08:55;;;;;;;;;;;;;;;3.61;63.76;94511.22;4971436;28;19973;-68
2023/11/12 07:11:20;;;;;;;;;;;;;;;3.80;62.09;94519.81;4966075;28;19984;-68
2023/11/12 07:13:45;;;;;;;;;;;;;;;2.73;52.33;94513.19;4973612;28;19918;-68
2023/11/12 07:16:15;;;;;;;;;;;;;;;3.24;62.21;94520.31;4963198;28;20387;-68
2023/11/12 07:18:40;;;;;;;;;;;;;;;3.35;56.09;94530.53;4967210;28;19925;-67
2023/11/12 07:21:06;;;;;;;;;;;;;;;2.96;53.15;94529.22;4968522;28;19917;-68
2023/11/12 07:23:31;;;;;;;;;;;;;;;0.46;59.01;94536.50;4982952;28;19926;-67
2023/11/12 07:25:56;;;;;;;;;;;;;;;1.65;61.54;94536.81;4966550;28;19954;-67
2023/11/12 07:28:21;;;;;;;;;;;;;;;2.46;64.01;94536.84;4978634;28;20020;-68
2023/11/12 07:30:47;;;;;;;;;;;;;;;2.94;62.55;94546.97;4972396;28;19972;-68
2023/11/12 07:33:12;;;;;;;;;;;;;;;2.27;58.22;94545.72;4974032;28;20316;-68
2023/11/12 07:35:37;;;;;;;;;;;;;;;2.50;56.15;94553.13;4968800;28;20489;-68
2023/11/12 07:38:02;;;;;;;;;;;;;;;2.76;62.44;94550.47;4972851;28;19930;-67
2023/11/12 07:40:28;;;;;;;;;;;;;;;3.12;60.53;94554.78;4969170;28;19961;-67
2023/11/12 07:42:55;;;;;;;;;;;;;;;3.42;61.73;94557.88;4978192;28;19930;-66
2023/11/12 07:45:20;;;;;;;;;;;;;;;3.65;62.90;94559.94;4969579;28;20096;-67
2023/11/12 07:47:45;;;;;;;;;;;;;;;3.76;63.28;94561.44;4971535;28;20168;-68
2023/11/12 07:50:11;;;;;;;;;;;;;;;2.68;57.55;94566.19;4976273;28;20391;-67
2023/11/12 07:52:36;;;;;;;;;;;;;;;3.22;61.96;94570.44;4975350;28;20299;-67
2023/11/12 07:55:02;;;;;;;;;;;;;;;3.28;63.65;94575.09;4974097;28;19926;-67
2023/11/12 07:57:27;;;;;;;;;;;;;;;3.61;57.96;94568.31;4974572;28;20084;-67
2023/11/12 07:59:53;;;;;;;;;;;;;;;3.38;54.65;94572.34;4974236;28;20319;-67
2023/11/12 08:02:18;;;;;;;;;;;;;;;2.75;55.41;94575.13;4975373;28;20017;-67
2023/11/12 08:04:43;;;;;;;;;;;;;;;3.31;63.10;94576.56;4976278;28;20443;-67
2023/11/12 08:07:09;;;;;;;;;;;;;;;3.61;60.32;94578.84;4974408;28;19969;-68
2023/11/12 08:09:36;;;;;;;;;;;;;;;3.79;59.08;94579.56;4970825;28;19913;-68
2023/11/12 08:12:01;;;;;;;;;;;;;;;3.17;57.95;94578.00;4972335;28;20477;-68
2023/11/12 08:14:26;;;;;;;;;;;;;;;3.53;60.88;94585.72;4971912;28;19926;-68
2023/11/12 08:16:51;;;;;;;;;;;;;;;3.77;61.25;94591.22;4974011;28;19933;-68
2023/11/12 08:19:17;;;;;;;;;;;;;;;3.75;52.64;94591.41;4970127;28;19936;-68
2023/11/12 08:21:42;;;;;;;;;;;;;;;4.01;60.88;94587.81;4977054;28;20003;-68
2023/11/12 08:24:08;;;;;;;;;;;;;;;4.22;62.13;94594.41;4978842;28;20065;-68
2023/11/12 08:26:38;;;;;;;;;;;;;;;4.42;61.01;94594.13;4974253;28;20008;-68
2023/11/12 08:29:06;;;;;;;;;;;;;;;4.23;61.73;94600.53;4979424;28;19933;-68
2023/11/12 08:31:32;;;;;;;;;;;;;;;4.38;57.46;94591.00;4974762;28;19925;-68
2023/11/12 08:33:57;;;;;;;;;;;;;;;4.22;58.99;94597.06;4973446;28;19921;-68
2023/11/12 08:36:22;;;;;;;;;;;;;;;3.67;53.24;94591.34;4976798;28;19921;-68
2023/11/12 08:38:47;;;;;;;;;;;;;;;2.35;56.87;94606.19;4980509;28;19922;-68
2023/11/12 08:41:13;;;;;;;;;;;;;;;2.39;60.48;94601.47;4962174;28;20019;-68
2023/11/12 08:43:39;;;;;;;;;;;;;;;2.18;57.08;94612.28;4979679;28;19922;-68
2023/11/12 08:46:04;;;;;;;;;;;;;;;3.60;55.55;94604.34;4969033;28;19980;-68
2023/11/12 08:48:33;;;;;;;;;;;;;;;2.72;53.16;94608.78;4972276;28;20046;-68
2023/11/12 08:50:59;;;;;;;;;;;;;;;3.27;56.56;94612.88;4974884;28;19926;-68
2023/11/12 08:53:27;;;;;;;;;;;;;;;3.36;58.46;94612.91;4979907;28;20141;-68
2023/11/12 08:55:52;;;;;;;;;;;;;;;2.12;55.11;94621.59;4982787;28;19921;-68
2023/11/12 08:58:20;;;;;;;;;;;;;;;3.29;61.64;94618.00;4964070;28;19929;-68
2023/11/12 09:00:45;;;;;;;;;;;;;;;3.78;58.55;94627.13;4968286;28;19925;-68
2023/11/12 09:03:10;;;;;;;;;;;;;;;4.10;59.37;94619.44;4974213;28;19922;-68
2023/11/12 09:05:36;;;;;;;;;;;;;;;4.19;59.84;94619.28;4970094;28;19929;-68
2023/11/12 09:08:01;;;;;;;;;;;;;;;4.30;57.05;94619.97;4969406;28;20014;-68
2023/11/12 09:10:26;;;;;;;;;;;;;;;4.42;52.94;94620.50;4976018;28;19922;-68
2023/11/12 09:12:52;;;;;;;;;;;;;;;4.19;51.15;94619.28;4971744;28;19922;-68
2023/11/12 09:15:17;;;;;;;;;;;;;;;3.86;54.65;94611.34;4966664;28;19954;-68
2023/11/12 09:17:43;;;;;;;;;;;;;;;4.12;58.16;94612.22;4972776;28;19930;-68
2023/11/12 09:20:13;;;;;;;;;;;;;;;3.51;54.97;94616.63;4978104;28;20403;-68
2023/11/12 09:22:39;;;;;;;;;;;;;;;3.92;58.28;94615.13;4975441;28;19929;-68
2023/11/12 09:25:04;;;;;;;;;;;;;;;4.52;54.14;94609.78;4968866;28;20625;-68
2023/11/12 09:27:29;;;;;;;;;;;;;;;4.64;51.73;94605.81;4978171;28;20495;-68
2023/11/12 09:29:55;;;;;;;;;;;;;;;4.52;55.03;94610.59;4974211;28;19917;-68
2023/11/12 09:32:20;;;;;;;;;;;;;;;4.73;53.93;94613.72;4976793;28;20090;-68
2023/11/12 09:34:45;;;;;;;;;;;;;;;4.02;49.17;94615.78;4980012;28;20368;-68
2023/11/12 09:37:11;;;;;;;;;;;;;;;4.61;55.26;94614.06;4979015;28;20282;-68
2023/11/12 09:39:36;;;;;;;;;;;;;;;4.88;57.25;94619.97;4978620;28;20020;-68
2023/11/12 09:42:01;;;;;;;;;;;;;;;4.94;56.86;94611.38;4973987;28;19926;-68
2023/11/12 09:44:27;;;;;;;;;;;;;;;4.62;57.71;94613.06;4975515;28;19918;-68
2023/11/12 09:47:10;;;;;;;;;;;;;;;4.62;55.16;94606.97;4952936;28;19981;-68
2023/11/12 09:49:36;;;;;;;;;;;;;;;5.14;59.61;94605.75;4971627;28;19925;-68
2023/11/12 09:52:01;;;;;;;;;;;;;;;4.99;51.29;94602.16;4976397;28;20343;-68
2023/11/12 09:54:26;;;;;;;;;;;;;;;5.12;57.31;94599.84;4977884;28;19921;-68
2023/11/12 09:56:51;;;;;;;;;;;;;;;5.39;56.57;94603.06;4977447;28;19922;-68
2023/11/12 09:59:17;;;;;;;;;;;;;;;5.47;50.29;94599.56;4968326;28;20429;-68
2023/11/12 10:01:43;;;;;;;;;;;;;;;5.41;55.37;94600.25;4964642;28;19922;-68
2023/11/12 10:04:09;;;;;;;;;;;;;;;5.59;50.67;94605.31;4979100;28;19926;-68
2023/11/12 10:06:38;;;;;;;;;;;;;;;5.34;53.80;94597.50;4973880;28;20506;-68
2023/11/12 10:09:03;;;;;;;;;;;;;;;5.59;56.29;94597.38;4968997;28;19926;-68
2023/11/12 10:11:28;;;;;;;;;;;;;;;5.82;55.85;94602.72;4969780;28;19932;-68
2023/11/12 10:13:56;;;;;;;;;;;;;;;6.13;54.31;94598.44;4969716;28;19929;-68
2023/11/12 10:16:22;;;;;;;;;;;;;;;6.45;55.72;94599.19;4973950;28;19980;-68
2023/11/12 10:18:47;;;;;;;;;;;;;;;6.67;55.32;94596.75;4972311;28;19918;-68
2023/11/12 10:21:12;;;;;;;;;;;;;;;7.00;52.67;94595.59;4969660;28;19930;-68
2023/11/12 10:23:37;;;;;;;;;;;;;;;7.20;53.92;94603.84;4972200;28;19919;-68
2023/11/12 10:26:09;;;;;;;;;;;;;;;7.43;52.34;94589.69;4970345;28;19956;-68
2023/11/12 10:28:34;;;;;;;;;;;;;;;7.23;52.74;94590.25;4964823;28;19980;-68
2023/11/12 10:31:00;;;;;;;;;;;;;;;7.71;50.35;94585.53;4976168;28;19922;-68
2023/11/12 10:33:29;;;;;;;;;;;;;;;8.09;51.61;94587.25;4977567;28;19925;-68
2023/11/12 10:35:57;;;;;;;;;;;;;;;8.48;50.73;94583.34;4975997;28;19934;-68
2023/11/12 10:38:23;;;;;;;;;;;;;;;8.70;49.80;94583.31;4960984;28;19932;-68
2023/11/12 10:40:58;;;;;;;;;;;;;;;9.09;49.72;94581.19;4962680;28;19914;-69
2023/11/12 10:43:23;;;;;;;;;;;;;;;9.41;47.36;94576.28;4967978;28;19937;-68
2023/11/12 10:45:48;;;;;;;;;;;;;;;9.20;45.45;94579.81;4974519;28;19929;-68
2023/11/12 10:48:15;;;;;;;;;;;;;;;8.37;40.89;94584.66;4971207;28;20523;-69
2023/11/12 10:50:40;;;;;;;;;;;;;;;8.76;45.85;94574.59;4968927;28;19921;-68
2023/11/12 10:53:05;;;;;;;;;;;;;;;8.99;46.51;94578.88;4978576;28;19925;-68
2023/11/12 10:55:31;;;;;;;;;;;;;;;9.24;47.16;94569.66;4971055;28;19922;-68
2023/11/12 10:57:57;;;;;;;;;;;;;;;9.26;46.34;94567.59;4973940;28;19929;-68
2023/11/12 11:00:22;;;;;;;;;;;;;;;9.29;46.15;94567.22;4970172;28;19960;-68
2023/11/12 11:02:48;;;;;;;;;;;;;;;9.36;39.59;94565.44;4976142;28;19926;-68
2023/11/12 11:05:14;;;;;;;;;;;;;;;9.19;39.73;94552.44;4971827;28;19932;-68
2023/11/12 11:07:39;;;;;;;;;;;;;;;8.91;45.11;94565.72;4972262;28;19922;-69
2023/11/12 11:10:05;;;;;;;;;;;;;;;9.01;46.44;94560.09;4971492;28;19921;-68
2023/11/12 11:12:30;;;;;;;;;;;;;;;7.86;45.57;94567.81;4979686;28;20004;-69
2023/11/12 11:14:56;;;;;;;;;;;;;;;8.29;47.56;94563.56;4974656;28;20061;-68
2023/11/12 11:17:34;;;;;;;;;;;;;;;8.27;45.61;94563.75;4973948;28;19918;-68
2023/11/12 11:20:00;;;;;;;;;;;;;;;8.11;44.61;94566.66;4972075;28;19918;-68
2023/11/12 11:22:26;;;;;;;;;;;;;;;7.99;42.52;94569.81;4974767;28;20368;-68
2023/11/12 11:24:52;;;;;;;;;;;;;;;8.03;48.03;94571.06;4983344;28;20036;-68
2023/11/12 11:27:19;;;;;;;;;;;;;;;8.10;44.73;94576.47;4979743;28;19936;-68
2023/11/12 11:30:13;;;;;;;;;;;;;;;7.82;46.42;94579.78;4979728;28;20004;-68
2023/11/12 11:33:05;;;;;;;;;;;;;;;7.84;41.93;94574.31;4968585;28;19922;-68
2023/11/12 11:35:30;;;;;;;;;;;;;;;7.74;43.36;94579.88;4976997;28;20465;-68
2023/11/12 11:38:08;;;;;;;;;;;;;;;7.66;43.29;94580.81;4969586;28;19933;-68
2023/11/12 11:40:34;;;;;;;;;;;;;;;7.21;42.57;94584.28;4977928;28;20016;-68
2023/11/12 11:43:18;;;;;;;;;;;;;;;6.94;48.79;94588.41;4973547;28;19932;-68
2023/11/12 11:46:03;;;;;;;;;;;;;;;5.04;48.06;94589.28;4975576;28;20405;-68
2023/11/12 11:48:28;;;;;;;;;;;;;;;5.68;47.52;94587.63;4980422;28;19972;-68
2023/11/12 11:50:55;;;;;;;;;;;;;;;5.57;49.03;94584.34;4982447;28;20289;-68
2023/11/12 11:53:23;;;;;;;;;;;;;;;6.08;44.84;94593.66;4977894;28;20773;-68
2023/11/12 11:55:49;;;;;;;;;;;;;;;4.83;48.25;94596.72;4982059;28;19917;-68
2023/11/12 11:58:15;;;;;;;;;;;;;;;4.99;53.19;94597.69;4971816;28;19926;-68
2023/11/12 12:00:57;;;;;;;;;;;;;;;5.62;52.24;94597.03;4982112;28;20553;-68
2023/11/12 12:03:25;;;;;;;;;;;;;;;5.47;50.39;94589.00;4976575;28;19921;-68
2023/11/12 12:05:52;;;;;;;;;;;;;;;5.11;51.43;94595.56;4971459;28;19934;-68
2023/11/12 12:08:17;;;;;;;;;;;;;;;4.73;46.89;94592.63;4968998;28;19922;-68
2023/11/12 12:10:45;;;;;;;;;;;;;;;4.31;52.17;94601.38;4970365;28;19929;-68
2023/11/12 12:13:11;;;;;;;;;;;;;;;5.14;48.14;94589.13;4986799;28;19936;-68
2023/11/12 12:15:36;;;;;;;;;;;;;;;4.48;50.22;94595.25;4971258;28;19926;-68
2023/11/12 12:18:16;;;;;;;;;;;;;;;5.06;53.34;94587.31;4968716;28;20375;-68
2023/11/12 12:20:41;;;;;;;;;;;;;;;5.64;55.40;94594.22;4978223;28;19918;-68
2023/11/12 12:23:06;;;;;;;;;;;;;;;5.54;52.03;94591.81;4981711;28;19984;-68
2023/11/12 12:25:31;;;;;;;;;;;;;;;5.98;49.84;94591.25;4970364;28;19921;-68
2023/11/12 12:27:57;;;;;;;;;;;;;;;6.34;49.98;94602.25;4978776;28;19926;-68
2023/11/12 12:30:22;;;;;;;;;;;;;;;5.94;46.73;94599.69;4974532;28;20012;-68
2023/11/12 12:32:48;;;;;;;;;;;;;;;6.36;48.29;94598.41;4965122;28;20689;-68
2023/11/12 12:35:23;;;;;;;;;;;;;;;6.31;51.21;94597.31;4969602;28;19933;-69
2023/11/12 12:37:48;;;;;;;;;;;;;;;5.80;50.91;94610.00;4969424;28;19925;-68
2023/11/12 12:40:19;;;;;;;;;;;;;;;5.37;47.54;94605.03;4971319;28;20665;-68
2023/11/12 12:42:44;;;;;;;;;;;;;;;4.65;48.56;94612.72;4975002;28;19929;-68
2023/11/12 12:45:15;;;;;;;;;;;;;;;3.91;57.90;94622.19;4972550;28;19921;-68
2023/11/12 12:47:42;;;;;;;;;;;;;;;4.91;53.05;94609.09;4974937;28;20592;-68
2023/11/12 12:50:25;;;;;;;;;;;;;;;5.24;55.48;94610.03;4975244;28;19949;-68
2023/11/12 12:52:51;;;;;;;;;;;;;;;5.80;53.47;94609.16;4980969;28;19969;-67